Time;durP1;ratioP1;P1;durP2;ratioP2;P2;SDS_P1;SDS_P2;PMS_P1;PMS_P2;Temp;Humidity;BMP_temperature;BMP_pressure;BME280_temperature;BME280_humidity;BME280_pressure;Samples;Min_cycle;Max_cycle;Signal;HPM_P1;HPM_P2
2022/06/09 00:01:24;;;;;;;32.45;17.27;;;;;;;;;;5012823;28;20190;-64
2022/06/09 00:04:02;;;;;;;36.63;18.42;;;;;;;;;;5000885;28;20294;-64
2022/06/09 00:06:36;;;;;;;38.25;18.90;;;;;;;;;;5003671;28;20225;-66
2022/06/09 00:09:04;;;;;;;38.08;17.45;;;;;;;;;;5023022;28;20601;-65
2022/06/09 00:11:33;;;;;;;36.05;17.50;;;;;;;;;;4999735;28;20183;-66
2022/06/09 00:13:59;;;;;;;34.42;17.30;;;;;;;;;;5008854;28;20202;-65
2022/06/09 00:16:25;;;;;;;37.70;17.33;;;;;;;;;;5009986;28;20183;-65
2022/06/09 00:18:51;;;;;;;31.88;15.45;;;;;;;;;;5033238;28;20203;-66
2022/06/09 00:21:17;;;;;;;34.60;15.52;;;;;;;;;;5011453;28;20193;-66
2022/06/09 00:23:42;;;;;;;28.13;13.82;;;;;;;;;;5010272;28;20191;-65
2022/06/09 00:26:08;;;;;;;33.63;14.10;;;;;;;;;;5003732;28;20231;-65
2022/06/09 00:28:33;;;;;;;32.22;14.10;;;;;;;;;;5012025;28;20178;-65
2022/06/09 00:30:58;;;;;;;31.02;13.00;;;;;;;;;;5012356;28;20237;-65
2022/06/09 00:33:24;;;;;;;30.40;12.45;;;;;;;;;;4998168;28;20514;-66
2022/06/09 00:35:50;;;;;;;28.48;12.68;;;;;;;;;;5006116;28;20685;-65
2022/06/09 00:38:15;;;;;;;33.20;11.07;;;;;;;;;;5012283;28;20217;-66
2022/06/09 00:40:41;;;;;;;24.08;10.38;;;;;;;;;;4996597;28;20187;-65
2022/06/09 00:43:07;;;;;;;24.70;10.82;;;;;;;;;;5011004;28;20217;-65
2022/06/09 00:45:44;;;;;;;29.35;9.98;;;;;;;;;;4996916;28;20202;-65
2022/06/09 00:48:43;;;;;;;22.25;9.02;;;;;;;;;;5003794;28;20174;-65
2022/06/09 00:51:36;;;;;;;25.08;8.98;;;;;;;;;;5001788;28;20192;-66
2022/06/09 00:54:08;;;;;;;27.67;9.13;;;;;;;;;;5007554;28;20694;-66
2022/06/09 00:56:37;;;;;;;29.55;9.77;;;;;;;;;;4997932;28;20182;-66
2022/06/09 00:59:03;;;;;;;27.92;7.70;;;;;;;;;;4998623;28;20205;-66
2022/06/09 01:01:29;;;;;;;22.73;7.85;;;;;;;;;;5011604;28;20185;-66
2022/06/09 01:04:01;;;;;;;23.70;7.80;;;;;;;;;;4999624;28;20188;-66
2022/06/09 01:06:31;;;;;;;23.25;7.70;;;;;;;;;;5008032;28;20593;-66
2022/06/09 01:09:04;;;;;;;28.73;6.95;;;;;;;;;;5009467;28;20701;-66
2022/06/09 01:11:29;;;;;;;20.80;6.95;;;;;;;;;;5009484;28;20183;-66
2022/06/09 01:13:57;;;;;;;17.33;7.10;;;;;;;;;;5009449;28;20472;-66
2022/06/09 01:16:31;;;;;;;26.08;6.72;;;;;;;;;;5049347;28;20596;-65
2022/06/09 01:19:02;;;;;;;24.38;6.93;;;;;;;;;;5008254;28;20505;-65
2022/06/09 01:22:02;;;;;;;23.15;6.72;;;;;;;;;;5007360;28;20274;-65
2022/06/09 01:24:54;;;;;;;21.13;6.65;;;;;;;;;;5004046;28;20273;-66
2022/06/09 01:27:51;;;;;;;19.23;6.22;;;;;;;;;;5010014;28;20214;-65
2022/06/09 01:30:38;;;;;;;26.20;7.25;;;;;;;;;;5001247;28;20249;-65
2022/06/09 01:33:18;;;;;;;20.33;6.22;;;;;;;;;;5005351;28;20202;-66
2022/06/09 01:36:03;;;;;;;24.13;6.35;;;;;;;;;;4991307;28;20554;-65
2022/06/09 01:38:29;;;;;;;17.52;6.20;;;;;;;;;;5001617;28;20490;-65
2022/06/09 01:40:55;;;;;;;26.10;6.32;;;;;;;;;;5006408;28;20245;-65
2022/06/09 01:43:20;;;;;;;29.33;6.53;;;;;;;;;;5009547;28;20194;-65
2022/06/09 01:45:55;;;;;;;28.23;6.53;;;;;;;;;;5004048;28;20270;-65
2022/06/09 01:48:24;;;;;;;22.08;6.60;;;;;;;;;;5005457;28;20236;-66
2022/06/09 01:51:05;;;;;;;23.85;7.20;;;;;;;;;;4990585;28;20555;-66
2022/06/09 01:53:37;;;;;;;20.10;6.88;;;;;;;;;;5004672;28;20201;-65
2022/06/09 01:56:08;;;;;;;20.95;6.63;;;;;;;;;;4996073;28;20694;-65
2022/06/09 01:58:48;;;;;;;22.88;7.55;;;;;;;;;;5009342;28;20209;-66
2022/06/09 02:01:16;;;;;;;26.27;8.18;;;;;;;;;;5004718;28;20221;-67
2022/06/09 02:03:45;;;;;;;24.02;7.32;;;;;;;;;;5008986;28;20470;-67
2022/06/09 02:06:11;;;;;;;24.60;8.10;;;;;;;;;;5000126;28;20233;-66
2022/06/09 02:08:38;;;;;;;19.20;7.95;;;;;;;;;;5002949;28;20263;-65
2022/06/09 02:11:11;;;;;;;28.27;8.88;;;;;;;;;;5000996;28;20194;-65
2022/06/09 02:13:43;;;;;;;20.63;8.77;;;;;;;;;;5005921;28;20266;-66
2022/06/09 02:16:13;;;;;;;32.42;8.40;;;;;;;;;;4992040;28;20219;-65
2022/06/09 02:18:45;;;;;;;19.70;8.80;;;;;;;;;;5003332;28;20629;-65
2022/06/09 02:21:18;;;;;;;32.72;8.52;;;;;;;;;;5005383;28;20178;-66
2022/06/09 02:23:45;;;;;;;25.48;9.25;;;;;;;;;;5007619;28;20257;-65
2022/06/09 02:26:10;;;;;;;22.65;8.65;;;;;;;;;;5008420;28;20219;-66
2022/06/09 02:28:35;;;;;;;24.02;8.38;;;;;;;;;;4995596;28;20191;-64
2022/06/09 02:31:02;;;;;;;26.27;9.35;;;;;;;;;;4988419;28;20203;-66
2022/06/09 02:33:28;;;;;;;23.05;8.40;;;;;;;;;;4997352;28;20191;-66
2022/06/09 02:35:53;;;;;;;25.17;9.02;;;;;;;;;;5008765;28;20932;-65
2022/06/09 02:38:20;;;;;;;21.17;8.73;;;;;;;;;;5003890;28;20206;-67
2022/06/09 02:40:46;;;;;;;24.48;8.68;;;;;;;;;;5008999;28;20191;-66
2022/06/09 02:43:13;;;;;;;26.95;9.00;;;;;;;;;;5001867;28;20501;-66
2022/06/09 02:45:38;;;;;;;21.13;8.52;;;;;;;;;;5000587;28;20178;-67
2022/06/09 02:48:04;;;;;;;24.17;8.40;;;;;;;;;;5009433;28;20219;-66
2022/06/09 02:50:30;;;;;;;26.98;9.30;;;;;;;;;;5006118;28;20261;-66
2022/06/09 02:52:55;;;;;;;30.65;9.57;;;;;;;;;;5002273;28;20266;-66
2022/06/09 02:55:21;;;;;;;22.02;8.65;;;;;;;;;;5008094;28;20183;-65
2022/06/09 02:57:46;;;;;;;21.42;8.65;;;;;;;;;;5007132;28;20187;-65
2022/06/09 03:00:14;;;;;;;23.50;9.82;;;;;;;;;;4998953;28;20297;-65
2022/06/09 03:02:41;;;;;;;27.27;9.90;;;;;;;;;;5018845;28;20181;-66
2022/06/09 03:05:07;;;;;;;23.10;10.65;;;;;;;;;;5009832;28;20638;-66
2022/06/09 03:07:33;;;;;;;28.42;10.35;;;;;;;;;;5011131;28;20639;-66
2022/06/09 03:09:58;;;;;;;33.42;10.30;;;;;;;;;;5006045;28;20181;-66
2022/06/09 03:12:23;;;;;;;26.88;10.40;;;;;;;;;;5007627;28;20658;-65
2022/06/09 03:14:49;;;;;;;23.35;10.77;;;;;;;;;;4996126;28;20202;-67
2022/06/09 03:17:14;;;;;;;36.05;12.43;;;;;;;;;;5017030;28;20244;-65
2022/06/09 03:19:40;;;;;;;30.98;12.90;;;;;;;;;;5010004;28;20221;-65
2022/06/09 03:22:06;;;;;;;25.15;12.35;;;;;;;;;;5007542;28;20594;-65
2022/06/09 03:24:31;;;;;;;26.90;11.43;;;;;;;;;;5004586;28;20317;-66
2022/06/09 03:26:57;;;;;;;30.90;12.55;;;;;;;;;;5008819;28;20217;-66
2022/06/09 03:29:23;;;;;;;32.17;12.52;;;;;;;;;;5007311;28;20182;-66
2022/06/09 03:31:48;;;;;;;31.05;12.50;;;;;;;;;;5003738;28;20207;-65
2022/06/09 03:34:14;;;;;;;26.27;12.23;;;;;;;;;;4996341;28;20199;-66
2022/06/09 03:36:40;;;;;;;32.72;11.85;;;;;;;;;;5011209;28;20550;-66
2022/06/09 03:39:05;;;;;;;27.67;12.25;;;;;;;;;;5010279;28;20686;-66
2022/06/09 03:41:31;;;;;;;28.92;12.68;;;;;;;;;;5006057;28;20711;-66
2022/06/09 03:43:56;;;;;;;33.95;13.10;;;;;;;;;;5012515;28;20201;-66
2022/06/09 03:46:22;;;;;;;31.95;12.40;;;;;;;;;;5010599;28;20191;-65
2022/06/09 03:48:47;;;;;;;27.90;12.43;;;;;;;;;;5004139;28;20179;-65
2022/06/09 03:51:13;;;;;;;32.58;12.32;;;;;;;;;;5007245;28;20171;-65
2022/06/09 03:53:40;;;;;;;38.67;13.13;;;;;;;;;;5007435;28;20215;-65
2022/06/09 03:56:11;;;;;;;24.55;12.05;;;;;;;;;;5008557;28;20194;-66
2022/06/09 03:58:36;;;;;;;33.80;13.10;;;;;;;;;;5015094;28;20213;-65
2022/06/09 04:01:02;;;;;;;24.65;11.35;;;;;;;;;;5020035;28;20198;-65
2022/06/09 04:03:27;;;;;;;31.23;12.90;;;;;;;;;;5018529;28;20190;-66
2022/06/09 04:05:52;;;;;;;34.63;12.90;;;;;;;;;;5015447;28;20186;-65
2022/06/09 04:08:18;;;;;;;30.67;12.75;;;;;;;;;;5003812;28;20183;-65
2022/06/09 04:10:43;;;;;;;26.17;12.68;;;;;;;;;;5011573;28;20230;-66
2022/06/09 04:13:08;;;;;;;26.73;12.65;;;;;;;;;;5009342;28;20190;-65
2022/06/09 04:15:34;;;;;;;24.58;11.85;;;;;;;;;;5016578;28;21441;-65
2022/06/09 04:17:59;;;;;;;33.30;12.27;;;;;;;;;;5009309;28;20179;-64
2022/06/09 04:20:26;;;;;;;29.67;12.43;;;;;;;;;;5010764;28;20273;-65
2022/06/09 04:22:52;;;;;;;27.00;11.75;;;;;;;;;;5009051;28;20634;-65
2022/06/09 04:25:18;;;;;;;30.00;12.43;;;;;;;;;;5010482;28;20230;-66
2022/06/09 04:27:45;;;;;;;19.95;11.25;;;;;;;;;;5009608;28;20574;-65
2022/06/09 04:30:11;;;;;;;26.80;11.65;;;;;;;;;;5008945;28;20651;-65
2022/06/09 04:32:37;;;;;;;23.90;11.25;;;;;;;;;;5008941;28;20213;-66
2022/06/09 04:35:03;;;;;;;25.60;10.90;;;;;;;;;;5011120;28;20266;-66
2022/06/09 04:38:02;;;;;;;24.08;9.95;;;;;;;;;;5008633;28;20191;-66
2022/06/09 04:40:20;;;;;;;21.58;8.85;;;;;;;;;;5007753;28;20232;-66
2022/06/09 04:42:46;;;;;;;21.98;8.85;;;;;;;;;;5009212;28;20653;-67
2022/06/09 04:45:11;;;;;;;22.75;8.63;;;;;;;;;;5020192;28;20293;-66
2022/06/09 04:47:36;;;;;;;18.55;8.43;;;;;;;;;;5004562;28;20179;-66
2022/06/09 04:50:03;;;;;;;19.10;7.68;;;;;;;;;;5005869;28;20270;-66
2022/06/09 04:52:28;;;;;;;17.70;7.28;;;;;;;;;;5000028;28;20509;-66
2022/06/09 04:54:54;;;;;;;20.42;7.07;;;;;;;;;;5005348;28;20676;-66
2022/06/09 04:57:19;;;;;;;17.60;6.82;;;;;;;;;;5006282;28;20182;-66
2022/06/09 04:59:44;;;;;;;16.80;6.40;;;;;;;;;;5002206;28;20239;-66
2022/06/09 05:02:10;;;;;;;16.17;6.88;;;;;;;;;;5014741;28;20193;-65
2022/06/09 05:04:35;;;;;;;17.98;6.70;;;;;;;;;;5005714;28;20259;-66
2022/06/09 05:07:00;;;;;;;17.25;6.68;;;;;;;;;;5001628;28;20216;-66
2022/06/09 05:09:26;;;;;;;14.13;6.22;;;;;;;;;;5042503;28;20576;-66
2022/06/09 05:11:51;;;;;;;19.13;6.95;;;;;;;;;;5000884;28;20191;-66
2022/06/09 05:14:16;;;;;;;21.30;7.10;;;;;;;;;;5006265;28;20279;-66
2022/06/09 05:16:42;;;;;;;23.77;6.97;;;;;;;;;;4998904;28;20617;-66
2022/06/09 05:19:07;;;;;;;16.85;6.78;;;;;;;;;;5008304;28;20226;-66
2022/06/09 05:21:32;;;;;;;16.63;6.72;;;;;;;;;;4992934;28;20172;-66
2022/06/09 05:23:58;;;;;;;17.15;6.75;;;;;;;;;;5003853;28;20569;-66
2022/06/09 05:26:23;;;;;;;14.07;6.22;;;;;;;;;;5007128;28;20250;-65
2022/06/09 05:28:48;;;;;;;15.65;6.95;;;;;;;;;;5008819;28;20236;-65
2022/06/09 05:31:14;;;;;;;17.27;7.18;;;;;;;;;;5012916;28;20206;-65
2022/06/09 05:33:40;;;;;;;10.75;6.22;;;;;;;;;;5007557;28;20187;-66
2022/06/09 05:36:06;;;;;;;16.67;6.45;;;;;;;;;;5008815;28;20262;-65
2022/06/09 05:46:45;;;;;;;16.60;5.65;;;;;;;;;;5006270;28;20198;-65
2022/06/09 05:49:11;;;;;;;14.18;5.05;;;;;;;;;;5009788;28;20199;-65
2022/06/09 05:51:36;;;;;;;9.20;5.40;;;;;;;;;;5010490;28;20323;-65
2022/06/09 05:54:03;;;;;;;14.48;6.40;;;;;;;;;;5012387;28;20213;-66
2022/06/09 05:56:28;;;;;;;16.17;5.60;;;;;;;;;;5008990;28;20301;-65
2022/06/09 05:58:55;;;;;;;16.70;5.40;;;;;;;;;;5006369;28;20229;-65
2022/06/09 06:01:21;;;;;;;15.43;5.55;;;;;;;;;;5006171;28;20187;-65
2022/06/09 06:03:46;;;;;;;11.10;4.63;;;;;;;;;;5005645;28;20182;-66
2022/06/09 06:08:56;;;;;;;10.30;5.00;;;;;;;;;;5005799;28;20216;-66
2022/06/09 06:11:22;;;;;;;11.27;5.90;;;;;;;;;;5001036;28;20630;-67
2022/06/09 06:13:47;;;;;;;13.20;4.90;;;;;;;;;;5004946;28;20190;-66
2022/06/09 06:16:13;;;;;;;9.88;4.75;;;;;;;;;;5006228;28;20190;-66
2022/06/09 06:18:38;;;;;;;13.57;6.30;;;;;;;;;;4998514;28;20327;-66
2022/06/09 06:21:04;;;;;;;11.38;5.00;;;;;;;;;;4999469;28;20191;-66
2022/06/09 06:23:30;;;;;;;9.77;5.00;;;;;;;;;;4992627;28;20231;-65
2022/06/09 06:25:56;;;;;;;10.70;4.97;;;;;;;;;;5005428;28;20651;-67
2022/06/09 06:28:22;;;;;;;12.80;4.25;;;;;;;;;;5004690;28;20186;-69
2022/06/09 06:30:49;;;;;;;12.20;5.10;;;;;;;;;;5010003;28;20207;-66
2022/06/09 06:33:15;;;;;;;12.43;4.80;;;;;;;;;;5005995;28;20238;-67
2022/06/09 06:35:40;;;;;;;8.18;4.25;;;;;;;;;;4994113;28;20549;-66
2022/06/09 06:38:06;;;;;;;9.10;4.47;;;;;;;;;;5003333;28;20279;-66
2022/06/09 06:40:31;;;;;;;9.90;4.80;;;;;;;;;;5008413;28;20535;-68
2022/06/09 06:42:57;;;;;;;12.10;4.28;;;;;;;;;;5009083;28;20213;-66
2022/06/09 06:45:22;;;;;;;8.73;4.13;;;;;;;;;;5007404;28;20187;-66
2022/06/09 06:47:48;;;;;;;8.88;4.10;;;;;;;;;;4993895;28;20217;-67
2022/06/09 06:50:14;;;;;;;5.05;3.35;;;;;;;;;;5004326;28;20230;-67
2022/06/09 06:52:40;;;;;;;18.35;4.07;;;;;;;;;;5006221;28;20533;-65
2022/06/09 06:55:07;;;;;;;8.93;3.97;;;;;;;;;;5008631;28;20266;-66
2022/06/09 06:57:33;;;;;;;10.50;3.80;;;;;;;;;;5008031;28;20251;-66
2022/06/09 07:00:00;;;;;;;8.45;3.80;;;;;;;;;;5008435;28;20687;-67
2022/06/09 07:02:25;;;;;;;9.18;2.90;;;;;;;;;;5022039;28;20482;-66
2022/06/09 07:04:51;;;;;;;7.82;3.58;;;;;;;;;;5005410;28;20182;-66
2022/06/09 07:07:16;;;;;;;8.50;3.00;;;;;;;;;;5021254;28;20183;-67
2022/06/09 07:09:41;;;;;;;12.35;4.13;;;;;;;;;;5007942;28;20213;-67
2022/06/09 07:12:07;;;;;;;6.70;3.83;;;;;;;;;;5004918;28;20182;-65
2022/06/09 07:14:33;;;;;;;6.53;3.20;;;;;;;;;;5004317;28;20213;-66
2022/06/09 07:17:00;;;;;;;5.25;3.13;;;;;;;;;;5005430;28;20526;-66
2022/06/09 07:19:25;;;;;;;5.15;2.88;;;;;;;;;;5000742;28;20206;-66
2022/06/09 07:21:51;;;;;;;5.60;2.90;;;;;;;;;;5007166;28;20206;-68
2022/06/09 07:24:16;;;;;;;6.22;2.80;;;;;;;;;;5002023;28;20187;-66
2022/06/09 07:26:41;;;;;;;5.28;2.40;;;;;;;;;;4995418;28;20259;-66
2022/06/09 07:29:07;;;;;;;6.78;2.22;;;;;;;;;;5006866;28;20167;-67
2022/06/09 07:31:32;;;;;;;5.93;2.33;;;;;;;;;;5029041;28;20258;-66
2022/06/09 07:33:58;;;;;;;7.65;2.38;;;;;;;;;;5004618;28;20186;-66
2022/06/09 07:36:24;;;;;;;5.25;2.33;;;;;;;;;;5008143;28;20309;-67
2022/06/09 07:38:50;;;;;;;5.63;2.30;;;;;;;;;;5003641;28;20230;-67
2022/06/09 07:41:19;;;;;;;4.07;2.70;;;;;;;;;;5006094;28;20206;-66
2022/06/09 07:43:45;;;;;;;5.18;1.90;;;;;;;;;;4997675;28;20254;-65
2022/06/09 07:46:11;;;;;;;6.88;2.55;;;;;;;;;;5003000;28;20282;-66
2022/06/09 07:48:37;;;;;;;3.42;1.70;;;;;;;;;;5008893;28;20266;-66
2022/06/09 07:51:03;;;;;;;5.88;1.60;;;;;;;;;;5000956;28;20634;-69
2022/06/09 07:53:28;;;;;;;4.20;1.83;;;;;;;;;;5007128;28;20190;-66
2022/06/09 07:55:54;;;;;;;6.75;1.75;;;;;;;;;;5012053;28;20187;-67
2022/06/09 07:58:19;;;;;;;3.47;1.70;;;;;;;;;;5020396;28;20182;-66
2022/06/09 08:00:45;;;;;;;4.07;1.65;;;;;;;;;;5016142;28;20669;-68
2022/06/09 08:03:21;;;;;;;5.72;1.50;;;;;;;;;;5004831;28;20188;-66
2022/06/09 08:05:47;;;;;;;4.20;1.58;;;;;;;;;;5000904;28;20210;-66
2022/06/09 08:08:13;;;;;;;4.82;1.48;;;;;;;;;;4998052;28;20214;-67
2022/06/09 08:10:41;;;;;;;5.88;1.52;;;;;;;;;;5001031;28;20187;-66
2022/06/09 08:13:07;;;;;;;5.03;1.45;;;;;;;;;;5001202;28;20183;-69
2022/06/09 08:15:33;;;;;;;3.22;1.38;;;;;;;;;;5010236;28;20206;-67
2022/06/09 08:17:59;;;;;;;3.90;1.23;;;;;;;;;;5001499;28;20191;-70
2022/06/09 08:20:31;;;;;;;3.38;1.15;;;;;;;;;;5007831;28;20345;-66
2022/06/09 08:23:09;;;;;;;2.67;0.90;;;;;;;;;;5004363;28;20183;-66
2022/06/09 08:25:36;;;;;;;2.60;1.10;;;;;;;;;;5006305;28;20820;-67
2022/06/09 08:28:03;;;;;;;3.45;1.20;;;;;;;;;;5009027;28;20193;-67
2022/06/09 08:30:29;;;;;;;4.13;0.77;;;;;;;;;;4999256;28;20522;-69
2022/06/09 08:32:54;;;;;;;3.22;1.00;;;;;;;;;;5001041;28;20221;-66
2022/06/09 08:35:20;;;;;;;2.17;0.88;;;;;;;;;;5002352;28;20174;-67
2022/06/09 08:37:48;;;;;;;4.10;1.00;;;;;;;;;;5001890;28;20235;-66
2022/06/09 08:40:53;;;;;;;1.83;0.90;;;;;;;;;;5011489;28;20210;-68
2022/06/09 08:43:34;;;;;;;2.67;0.80;;;;;;;;;;5002351;28;20190;-68
2022/06/09 08:46:21;;;;;;;3.78;1.02;;;;;;;;;;5006133;28;20193;-67
2022/06/09 08:48:49;;;;;;;2.63;0.85;;;;;;;;;;5009732;28;20167;-67
2022/06/09 08:51:23;;;;;;;3.22;1.27;;;;;;;;;;5000260;28;20274;-68
2022/06/09 08:53:53;;;;;;;4.07;0.50;;;;;;;;;;4995594;28;20182;-67
2022/06/09 08:56:30;;;;;;;3.58;0.60;;;;;;;;;;5011040;28;20183;-66
2022/06/09 08:59:03;;;;;;;3.08;0.90;;;;;;;;;;5008815;28;20325;-67
2022/06/09 09:01:42;;;;;;;6.03;0.98;;;;;;;;;;5009424;28;20183;-68
2022/06/09 09:04:08;;;;;;;4.97;1.10;;;;;;;;;;5010035;28;20281;-67
2022/06/09 09:06:38;;;;;;;3.08;0.90;;;;;;;;;;4999176;28;20318;-67
2022/06/09 09:09:17;;;;;;;3.95;0.80;;;;;;;;;;5004199;28;20187;-66
2022/06/09 09:12:07;;;;;;;2.70;1.00;;;;;;;;;;5009142;28;20208;-68
2022/06/09 09:14:46;;;;;;;1.90;0.90;;;;;;;;;;5005520;28;20183;-68
2022/06/09 09:17:21;;;;;;;2.28;0.80;;;;;;;;;;5002053;28;20187;-68
2022/06/09 09:20:06;;;;;;;4.35;1.33;;;;;;;;;;5008829;28;20202;-67
2022/06/09 09:22:54;;;;;;;3.20;0.90;;;;;;;;;;5009772;28;20257;-66
2022/06/09 09:25:41;;;;;;;4.53;1.15;;;;;;;;;;4999234;28;20721;-68
2022/06/09 09:28:18;;;;;;;3.30;1.23;;;;;;;;;;5008163;28;20177;-68
2022/06/09 09:31:11;;;;;;;3.60;1.20;;;;;;;;;;5010224;28;20182;-68
2022/06/09 09:33:36;;;;;;;5.93;1.25;;;;;;;;;;5007693;28;20654;-67
2022/06/09 09:36:08;;;;;;;1.17;0.80;;;;;;;;;;5010310;28;20183;-67
2022/06/09 09:38:45;;;;;;;4.22;1.20;;;;;;;;;;5007994;28;20210;-67
2022/06/09 09:41:31;;;;;;;4.32;0.90;;;;;;;;;;4998830;28;20187;-67
2022/06/09 09:43:57;;;;;;;4.90;1.05;;;;;;;;;;4997576;28;20179;-68
2022/06/09 09:46:31;;;;;;;3.70;1.10;;;;;;;;;;5018940;28;20186;-69
2022/06/09 09:48:59;;;;;;;6.40;1.17;;;;;;;;;;4996735;28;20278;-68
2022/06/09 09:51:36;;;;;;;3.58;1.10;;;;;;;;;;5009483;28;20227;-67
2022/06/09 09:54:19;;;;;;;5.80;1.55;;;;;;;;;;5010511;28;20182;-66
2022/06/09 09:56:44;;;;;;;5.55;1.35;;;;;;;;;;5008846;28;20212;-69
2022/06/09 09:59:23;;;;;;;3.50;1.20;;;;;;;;;;5009013;28;20198;-68
2022/06/09 10:10:25;;;;;;;3.03;1.30;;;;;;;;;;5008343;28;20186;-68
2022/06/09 10:12:51;;;;;;;1.38;1.15;;;;;;;;;;5009303;28;20635;-68
2022/06/09 10:15:19;;;;;;;3.95;1.23;;;;;;;;;;5004823;28;20214;-68
2022/06/09 10:17:58;;;;;;;3.10;1.20;;;;;;;;;;5008668;28;20206;-67
2022/06/09 10:20:34;;;;;;;7.80;2.15;;;;;;;;;;4995895;28;20349;-68
2022/06/09 10:23:09;;;;;;;3.15;1.13;;;;;;;;;;5005915;28;20186;-69
2022/06/09 10:26:02;;;;;;;3.83;1.05;;;;;;;;;;5009870;28;20576;-70
2022/06/09 10:28:27;;;;;;;9.25;1.45;;;;;;;;;;5000292;28;20183;-67
2022/06/09 10:31:06;;;;;;;4.70;0.98;;;;;;;;;;5008918;28;20309;-69
2022/06/09 10:33:47;;;;;;;5.63;0.85;;;;;;;;;;4991725;28;20520;-67
2022/06/09 10:36:38;;;;;;;2.13;0.60;;;;;;;;;;5009481;28;20189;-67
2022/06/09 10:39:29;;;;;;;3.67;0.93;;;;;;;;;;4999453;28;20469;-68
2022/06/09 10:42:26;;;;;;;3.15;0.70;;;;;;;;;;5003710;28;20198;-67
2022/06/09 10:45:30;;;;;;;3.08;1.05;;;;;;;;;;5003406;28;20182;-69
2022/06/09 10:57:23;;;;;;;3.80;1.13;;;;;;;;;;5006337;28;20557;-67
2022/06/09 11:00:13;;;;;;;4.18;0.73;;;;;;;;;;5002749;28;20194;-69
2022/06/09 11:02:40;;;;;;;1.75;0.70;;;;;;;;;;4992706;28;20266;-69
2022/06/09 11:05:06;;;;;;;2.53;0.80;;;;;;;;;;4999452;28;20197;-71
2022/06/09 11:07:37;;;;;;;2.45;0.90;;;;;;;;;;5004722;28;20191;-67
2022/06/09 11:10:21;;;;;;;4.50;1.10;;;;;;;;;;4993870;28;20183;-70
2022/06/09 11:13:05;;;;;;;2.88;0.70;;;;;;;;;;5010211;28;20674;-70
2022/06/09 11:15:34;;;;;;;3.75;0.60;;;;;;;;;;5007803;28;20182;-69
2022/06/09 11:18:35;;;;;;;3.20;1.10;;;;;;;;;;4997926;28;20372;-71
2022/06/09 11:21:00;;;;;;;1.63;0.70;;;;;;;;;;5002664;28;20190;-70
2022/06/09 11:23:44;;;;;;;3.97;0.85;;;;;;;;;;5009656;28;20174;-69
2022/06/09 11:26:17;;;;;;;2.55;0.82;;;;;;;;;;5008627;28;20333;-70
2022/06/09 11:29:10;;;;;;;2.97;0.82;;;;;;;;;;5002985;28;20202;-75
2022/06/09 11:32:07;;;;;;;2.63;0.65;;;;;;;;;;5008214;28;20226;-67
2022/06/09 11:34:58;;;;;;;2.13;0.60;;;;;;;;;;5007696;28;20175;-73
2022/06/09 11:37:42;;;;;;;2.33;0.90;;;;;;;;;;5003991;28;20207;-73
2022/06/09 11:40:32;;;;;;;2.83;0.70;;;;;;;;;;5014653;28;20264;-69
2022/06/09 11:43:35;;;;;;;5.43;0.90;;;;;;;;;;5010878;28;20191;-71
2022/06/09 11:46:05;;;;;;;3.28;0.98;;;;;;;;;;5010764;28;20672;-69
2022/06/09 11:48:38;;;;;;;3.97;0.68;;;;;;;;;;5013066;28;20217;-69
2022/06/09 11:51:04;;;;;;;5.53;1.02;;;;;;;;;;5006943;28;20175;-68
2022/06/09 11:53:35;;;;;;;3.85;1.02;;;;;;;;;;5011869;28;20728;-68
2022/06/09 11:56:33;;;;;;;9.70;1.10;;;;;;;;;;5007522;28;20213;-67
2022/06/09 11:59:15;;;;;;;4.28;0.90;;;;;;;;;;5010937;28;20233;-73
2022/06/09 12:01:40;;;;;;;2.80;0.80;;;;;;;;;;5011406;28;20182;-69
2022/06/09 12:04:34;;;;;;;4.82;1.10;;;;;;;;;;5007952;28;20190;-69
2022/06/09 12:07:25;;;;;;;1.80;0.80;;;;;;;;;;5010348;28;20175;-69
2022/06/09 12:10:02;;;;;;;7.45;1.02;;;;;;;;;;5019002;28;20182;-68
2022/06/09 12:12:45;;;;;;;4.05;0.90;;;;;;;;;;5005526;28;20615;-69
2022/06/09 12:15:31;;;;;;;4.03;0.85;;;;;;;;;;5008939;28;20412;-70
2022/06/09 12:18:23;;;;;;;6.35;1.00;;;;;;;;;;5009009;28;20186;-72
2022/06/09 12:20:49;;;;;;;7.65;1.45;;;;;;;;;;5005345;28;20194;-68
2022/06/09 12:23:22;;;;;;;2.33;0.95;;;;;;;;;;5008522;28;20195;-76
2022/06/09 12:26:09;;;;;;;4.18;0.77;;;;;;;;;;5007534;28;20260;-71
2022/06/09 12:28:50;;;;;;;4.55;0.88;;;;;;;;;;5004311;28;20183;-68
2022/06/09 12:31:23;;;;;;;4.15;0.68;;;;;;;;;;5007365;28;20210;-70
2022/06/09 12:34:01;;;;;;;5.30;0.80;;;;;;;;;;5008804;28;20210;-68
2022/06/09 12:36:39;;;;;;;3.90;1.05;;;;;;;;;;5011768;28;20216;-68
2022/06/09 12:39:17;;;;;;;2.65;0.70;;;;;;;;;;5006755;28;20264;-67
2022/06/09 12:41:48;;;;;;;4.63;0.90;;;;;;;;;;5009084;28;21107;-72
2022/06/09 12:44:35;;;;;;;4.15;0.80;;;;;;;;;;5008974;28;20181;-71
2022/06/09 12:47:17;;;;;;;2.95;0.70;;;;;;;;;;5008983;28;20336;-70
2022/06/09 12:49:45;;;;;;;4.65;1.05;;;;;;;;;;5010423;28;20174;-69
2022/06/09 12:52:26;;;;;;;2.90;0.98;;;;;;;;;;5007167;28;20667;-70
2022/06/09 12:54:59;;;;;;;3.33;0.80;;;;;;;;;;5010112;28;20170;-70
2022/06/09 12:57:28;;;;;;;2.25;0.77;;;;;;;;;;5009328;28;20195;-69
2022/06/09 13:00:12;;;;;;;2.72;0.70;;;;;;;;;;5010150;28;20201;-69
2022/06/09 13:02:39;;;;;;;3.78;0.70;;;;;;;;;;5007363;28;20299;-70
2022/06/09 13:05:15;;;;;;;4.60;0.70;;;;;;;;;;5012151;28;20237;-71
2022/06/09 13:08:20;;;;;;;5.85;0.93;;;;;;;;;;5009673;28;20273;-69
2022/06/09 13:10:55;;;;;;;6.63;1.10;;;;;;;;;;4995436;28;20685;-71
2022/06/09 13:13:25;;;;;;;2.65;0.82;;;;;;;;;;5009019;28;20229;-67
2022/06/09 13:15:57;;;;;;;3.72;1.15;;;;;;;;;;5012230;28;20182;-70
2022/06/09 13:18:34;;;;;;;7.88;1.40;;;;;;;;;;5008789;28;20226;-68
2022/06/09 13:21:20;;;;;;;2.65;0.90;;;;;;;;;;5002065;28;20183;-69
2022/06/09 13:23:49;;;;;;;4.65;1.23;;;;;;;;;;5008565;28;20186;-68
2022/06/09 13:26:21;;;;;;;6.18;1.20;;;;;;;;;;5005911;28;20736;-69
2022/06/09 13:28:49;;;;;;;5.57;0.80;;;;;;;;;;5007512;28;20274;-70
2022/06/09 13:31:31;;;;;;;5.63;1.00;;;;;;;;;;5009933;28;20745;-70
2022/06/09 13:34:25;;;;;;;3.60;0.80;;;;;;;;;;5009140;28;20174;-70
2022/06/09 13:37:04;;;;;;;3.60;0.93;;;;;;;;;;5001348;28;20175;-68
2022/06/09 13:39:32;;;;;;;2.20;0.77;;;;;;;;;;4996572;28;20214;-69
2022/06/09 13:42:10;;;;;;;5.65;0.98;;;;;;;;;;5006655;28;20660;-74
2022/06/09 13:44:49;;;;;;;6.85;0.95;;;;;;;;;;5008683;28;20696;-69
2022/06/09 13:47:19;;;;;;;3.35;0.80;;;;;;;;;;5008207;28;20191;-68
2022/06/09 13:49:59;;;;;;;4.88;0.80;;;;;;;;;;5009830;28;20186;-68
2022/06/09 13:52:26;;;;;;;5.20;1.05;;;;;;;;;;5006704;28;20186;-69
2022/06/09 13:54:55;;;;;;;4.05;1.00;;;;;;;;;;5007417;28;20520;-70
2022/06/09 13:57:31;;;;;;;6.00;1.00;;;;;;;;;;5009426;28;21462;-76
2022/06/09 13:59:57;;;;;;;5.00;1.30;;;;;;;;;;5007141;28;20210;-69
2022/06/09 14:02:27;;;;;;;4.38;1.00;;;;;;;;;;5007448;28;20548;-67
2022/06/09 14:04:52;;;;;;;3.90;1.10;;;;;;;;;;5005097;28;20207;-69
2022/06/09 14:07:23;;;;;;;4.57;1.08;;;;;;;;;;5012275;28;20304;-68
2022/06/09 14:09:51;;;;;;;4.00;1.00;;;;;;;;;;5008880;28;20186;-68
2022/06/09 14:12:17;;;;;;;1.92;0.70;;;;;;;;;;5013546;28;20598;-73
2022/06/09 14:14:42;;;;;;;6.32;1.05;;;;;;;;;;5005113;28;20276;-69
2022/06/09 14:17:19;;;;;;;3.30;0.85;;;;;;;;;;5006134;28;20179;-70
2022/06/09 14:19:44;;;;;;;4.80;1.10;;;;;;;;;;5003313;28;20219;-68
2022/06/09 14:22:10;;;;;;;3.97;1.00;;;;;;;;;;5008783;28;20320;-69
2022/06/09 14:24:36;;;;;;;5.03;1.33;;;;;;;;;;5010686;28;20238;-71
2022/06/09 14:27:02;;;;;;;8.82;1.08;;;;;;;;;;5008765;28;20215;-68
2022/06/09 14:29:28;;;;;;;5.78;1.00;;;;;;;;;;5008285;28;20167;-69
2022/06/09 14:31:54;;;;;;;4.57;0.93;;;;;;;;;;5007422;28;20233;-69
2022/06/09 14:34:20;;;;;;;3.65;0.80;;;;;;;;;;5010745;28;20257;-69
2022/06/09 14:36:45;;;;;;;6.75;1.67;;;;;;;;;;5006876;28;20229;-68
2022/06/09 14:39:15;;;;;;;4.38;1.17;;;;;;;;;;5003483;28;20653;-71
2022/06/09 14:41:41;;;;;;;7.63;1.17;;;;;;;;;;5005693;28;20631;-69
2022/06/09 14:44:07;;;;;;;3.17;1.15;;;;;;;;;;5004018;28;20183;-68
2022/06/09 14:46:37;;;;;;;5.97;1.48;;;;;;;;;;5008585;28;20277;-69
2022/06/09 14:49:03;;;;;;;7.05;1.15;;;;;;;;;;5011152;28;20183;-68
2022/06/09 14:51:29;;;;;;;4.35;0.70;;;;;;;;;;5006050;28;20193;-66
2022/06/09 14:53:55;;;;;;;4.30;1.33;;;;;;;;;;5007129;28;20258;-69
2022/06/09 14:56:27;;;;;;;4.20;1.08;;;;;;;;;;5014153;28;20183;-69
2022/06/09 14:58:52;;;;;;;3.38;0.85;;;;;;;;;;5000672;28;20199;-67
2022/06/09 15:01:19;;;;;;;3.42;1.20;;;;;;;;;;5011302;28;20177;-72
2022/06/09 15:03:45;;;;;;;4.00;0.90;;;;;;;;;;5031574;28;20179;-67
2022/06/09 15:06:19;;;;;;;4.05;1.05;;;;;;;;;;5002704;28;20244;-71
2022/06/09 15:08:48;;;;;;;7.85;1.23;;;;;;;;;;5005240;28;20178;-68
2022/06/09 15:11:16;;;;;;;6.85;1.02;;;;;;;;;;5000707;28;20252;-68
2022/06/09 15:13:42;;;;;;;6.88;1.17;;;;;;;;;;4986039;28;20170;-68
2022/06/09 15:16:08;;;;;;;6.95;1.38;;;;;;;;;;5004952;28;20182;-69
2022/06/09 15:18:33;;;;;;;5.47;1.10;;;;;;;;;;5026168;28;20254;-68
2022/06/09 15:20:59;;;;;;;5.15;1.30;;;;;;;;;;5001164;28;20189;-68
2022/06/09 15:23:25;;;;;;;6.53;1.20;;;;;;;;;;5003276;28;20393;-72
2022/06/09 15:25:51;;;;;;;3.53;1.13;;;;;;;;;;5004860;28;20264;-68
2022/06/09 15:28:18;;;;;;;4.25;1.10;;;;;;;;;;5004555;28;20187;-67